Time;durP1;ratioP1;P1;durP2;ratioP2;P2;SDS_P1;SDS_P2;PMS_P1;PMS_P2;Temp;Humidity;BMP_temperature;BMP_pressure;BME280_temperature;BME280_humidity;BME280_pressure;Samples;Min_cycle;Max_cycle;Signal;HPM_P1;HPM_P2
2020/12/05 00:02:38;;;;;;;0.60;0.60;;;8.50;94.90;;;;;;7737584;28;20056;-76
2020/12/05 00:06:24;;;;;;;1.17;0.60;;;8.50;95.00;;;;;;7744012;28;20056;-77
2020/12/05 00:10:05;;;;;;;0.87;0.60;;;8.50;95.00;;;;;;7733691;28;20083;-77
2020/12/05 00:13:47;;;;;;;0.83;0.80;;;8.60;95.10;;;;;;7708680;28;20114;-77
2020/12/05 00:17:31;;;;;;;2.43;0.80;;;8.60;95.10;;;;;;7720104;28;20156;-75
2020/12/05 00:21:16;;;;;;;1.30;0.70;;;8.60;95.20;;;;;;7703736;28;20057;-76
2020/12/05 00:24:58;;;;;;;1.53;0.80;;;8.70;95.10;;;;;;7725062;28;20083;-82
2020/12/05 00:28:39;;;;;;;2.53;0.80;;;8.70;95.20;;;;;;7708956;28;20084;-77
2020/12/05 00:32:22;;;;;;;2.70;0.97;;;8.60;95.20;;;;;;7746779;28;20079;-76
2020/12/05 00:36:03;;;;;;;0.80;0.70;;;8.60;95.30;;;;;;7763220;28;20082;-77
2020/12/05 00:39:44;;;;;;;1.00;0.80;;;8.40;95.20;;;;;;7727379;28;20083;-76
2020/12/05 00:43:26;;;;;;;0.80;0.67;;;8.40;95.60;;;;;;7727267;28;20543;-76
2020/12/05 00:47:07;;;;;;;1.00;0.80;;;8.30;95.60;;;;;;7732229;28;20617;-76
2020/12/05 00:50:49;;;;;;;2.03;0.83;;;8.30;95.60;;;;;;7731402;28;20508;-76
2020/12/05 00:54:31;;;;;;;1.20;0.80;;;8.30;95.80;;;;;;7731243;28;20087;-76
2020/12/05 00:58:13;;;;;;;0.67;0.67;;;8.20;95.80;;;;;;7720537;28;20060;-77
2020/12/05 01:01:55;;;;;;;0.70;0.70;;;8.20;95.90;;;;;;7731645;28;20321;-75
2020/12/05 01:05:37;;;;;;;0.60;0.60;;;8.20;95.90;;;;;;7724454;28;20106;-75
2020/12/05 01:09:19;;;;;;;0.97;0.60;;;8.20;96.00;;;;;;7730815;28;20078;-78
2020/12/05 01:13:01;;;;;;;0.50;0.50;;;8.20;96.00;;;;;;7731684;28;20353;-77
2020/12/05 01:16:46;;;;;;;0.53;0.50;;;8.20;96.10;;;;;;7722959;28;20620;-76
2020/12/05 01:20:27;;;;;;;0.50;0.50;;;8.20;96.10;;;;;;7731487;28;20059;-76
2020/12/05 01:24:09;;;;;;;0.50;0.50;;;8.20;96.20;;;;;;7732995;28;20048;-76
2020/12/05 01:27:50;;;;;;;0.60;0.60;;;8.20;96.30;;;;;;7731783;28;20290;-76
2020/12/05 01:31:32;;;;;;;0.57;0.50;;;8.20;96.40;;;;;;7741788;28;20552;-77
2020/12/05 01:35:14;;;;;;;0.97;0.63;;;8.20;96.40;;;;;;7726591;28;20135;-77
2020/12/05 01:38:56;;;;;;;0.50;0.50;;;8.30;96.50;;;;;;7732048;28;20071;-78
2020/12/05 01:42:39;;;;;;;1.23;0.70;;;8.30;96.50;;;;;;7732631;28;20060;-77
2020/12/05 01:46:37;;;;;;;0.73;0.60;;;8.30;96.60;;;;;;7725478;28;20143;-76
2020/12/05 01:50:18;;;;;;;1.40;0.70;;;8.40;96.40;;;;;;7729661;28;20488;-77
2020/12/05 01:54:00;;;;;;;0.60;0.60;;;8.40;96.60;;;;;;7730323;28;20142;-76
2020/12/05 01:57:41;;;;;;;0.50;0.50;;;8.30;96.60;;;;;;7729638;28;20099;-77
2020/12/05 02:01:26;;;;;;;0.90;0.60;;;8.30;96.60;;;;;;7730337;28;20136;-77
2020/12/05 02:05:28;;;;;;;0.50;0.50;;;8.30;96.70;;;;;;7722535;28;20436;-76
2020/12/05 02:09:16;;;;;;;0.43;0.43;;;8.20;96.70;;;;;;7726985;28;20138;-77
2020/12/05 02:13:10;;;;;;;0.50;0.50;;;8.20;96.80;;;;;;7729485;28;20052;-76
2020/12/05 02:16:58;;;;;;;0.50;0.50;;;8.20;96.80;;;;;;7713088;28;20131;-75
2020/12/05 02:20:40;;;;;;;0.50;0.50;;;8.10;96.90;;;;;;7715470;28;20087;-75
2020/12/05 02:24:23;;;;;;;0.50;0.50;;;8.10;97.00;;;;;;7729947;28;20087;-75
2020/12/05 02:28:06;;;;;;;0.50;0.50;;;8.10;97.10;;;;;;7717818;28;20059;-76
2020/12/05 02:31:48;;;;;;;0.40;0.40;;;8.10;97.10;;;;;;7721915;28;20135;-76
2020/12/05 02:35:30;;;;;;;0.60;0.50;;;8.10;97.10;;;;;;7727776;28;20142;-77
2020/12/05 02:39:12;;;;;;;0.50;0.50;;;8.10;97.10;;;;;;7728150;28;20056;-77
2020/12/05 02:42:55;;;;;;;0.40;0.40;;;8.00;97.00;;;;;;7728567;28;20060;-76
2020/12/05 02:46:37;;;;;;;0.50;0.50;;;8.00;97.00;;;;;;7730214;28;20060;-80
2020/12/05 02:50:18;;;;;;;0.50;0.50;;;8.00;97.10;;;;;;7726927;28;20483;-80
2020/12/05 02:54:00;;;;;;;0.50;0.50;;;7.90;97.10;;;;;;7731482;28;20056;-75
2020/12/05 02:57:42;;;;;;;0.50;0.50;;;7.90;97.20;;;;;;7728155;28;20143;-75
2020/12/05 03:01:23;;;;;;;0.50;0.50;;;7.90;97.30;;;;;;7740144;28;20317;-76
2020/12/05 03:05:04;;;;;;;0.50;0.50;;;7.90;97.30;;;;;;7718297;28;20099;-76
2020/12/05 03:08:46;;;;;;;0.50;0.50;;;7.90;97.30;;;;;;7728558;28;20092;-76
2020/12/05 03:12:28;;;;;;;0.40;0.40;;;7.90;97.30;;;;;;7728930;28;20063;-75
2020/12/05 03:16:09;;;;;;;0.50;0.50;;;7.90;97.40;;;;;;7730389;28;20131;-75
2020/12/05 03:19:51;;;;;;;0.50;0.50;;;7.90;97.50;;;;;;7725142;28;20088;-75
2020/12/05 03:23:32;;;;;;;0.50;0.50;;;7.90;97.50;;;;;;7734843;28;20052;-75
2020/12/05 03:27:14;;;;;;;0.50;0.50;;;7.90;97.60;;;;;;7723815;28;20064;-75
2020/12/05 03:30:56;;;;;;;0.50;0.50;;;7.90;97.60;;;;;;7750864;28;20048;-75
2020/12/05 03:34:41;;;;;;;0.50;0.50;;;7.90;97.70;;;;;;7722711;28;20063;-75
2020/12/05 03:38:22;;;;;;;0.50;0.50;;;7.90;97.70;;;;;;7732046;28;20149;-75
2020/12/05 03:42:04;;;;;;;0.50;0.50;;;7.90;97.70;;;;;;7732741;28;20647;-76
2020/12/05 03:45:46;;;;;;;0.50;0.50;;;7.90;97.70;;;;;;7734106;28;20503;-74
2020/12/05 03:49:33;;;;;;;0.50;0.50;;;7.90;97.70;;;;;;7731493;28;20137;-74
2020/12/05 03:53:14;;;;;;;0.50;0.50;;;7.90;97.70;;;;;;7728853;28;20059;-75
2020/12/05 03:56:56;;;;;;;0.50;0.50;;;7.90;97.80;;;;;;7732954;28;20133;-75
2020/12/05 04:00:38;;;;;;;0.50;0.50;;;7.90;97.80;;;;;;7741481;28;20060;-77
2020/12/05 04:04:20;;;;;;;0.50;0.50;;;7.90;97.80;;;;;;7740389;28;20066;-78
2020/12/05 04:08:01;;;;;;;0.50;0.50;;;7.90;97.80;;;;;;7720641;28;20127;-76
2020/12/05 04:11:43;;;;;;;0.43;0.43;;;7.90;97.90;;;;;;7732133;28;20056;-76
2020/12/05 04:15:24;;;;;;;0.50;0.50;;;7.80;98.00;;;;;;7733912;28;20067;-77
2020/12/05 04:19:06;;;;;;;0.50;0.50;;;7.90;98.10;;;;;;7737864;28;20139;-76
2020/12/05 04:22:48;;;;;;;0.50;0.50;;;7.90;98.10;;;;;;7731870;28;20060;-76
2020/12/05 04:26:30;;;;;;;0.40;0.40;;;8.00;98.20;;;;;;7732392;28;20060;-76
2020/12/05 04:30:11;;;;;;;0.40;0.40;;;8.00;98.20;;;;;;7729264;28;20162;-79
2020/12/05 04:33:52;;;;;;;0.40;0.40;;;8.00;98.10;;;;;;7723614;28;20087;-77
2020/12/05 04:37:34;;;;;;;0.50;0.50;;;8.10;98.20;;;;;;7733654;28;20059;-76
2020/12/05 04:41:15;;;;;;;0.50;0.50;;;8.10;98.10;;;;;;7730214;28;20080;-77
2020/12/05 04:44:58;;;;;;;0.40;0.40;;;8.20;98.10;;;;;;7733603;28;20135;-77
2020/12/05 04:48:41;;;;;;;0.50;0.50;;;8.20;98.10;;;;;;7732738;28;20047;-76
2020/12/05 04:52:36;;;;;;;0.40;0.40;;;8.30;98.10;;;;;;7731191;28;20048;-76
2020/12/05 04:56:18;;;;;;;0.50;0.50;;;8.30;98.00;;;;;;7718085;28;20095;-75
2020/12/05 04:59:59;;;;;;;0.50;0.50;;;8.40;98.00;;;;;;7722963;28;20091;-75
2020/12/05 05:03:42;;;;;;;0.50;0.50;;;8.50;98.00;;;;;;7735618;28;20052;-75
2020/12/05 05:07:24;;;;;;;0.40;0.40;;;8.50;97.90;;;;;;7732163;28;20052;-75
2020/12/05 05:11:12;;;;;;;0.50;0.50;;;8.50;97.80;;;;;;7732180;28;20048;-76
2020/12/05 05:14:54;;;;;;;0.47;0.47;;;8.60;97.70;;;;;;7727856;28;20052;-75
2020/12/05 05:18:36;;;;;;;0.50;0.50;;;8.60;97.70;;;;;;7731416;28;20060;-77
2020/12/05 05:22:22;;;;;;;0.40;0.40;;;8.70;97.60;;;;;;7718656;28;20068;-75
2020/12/05 05:26:06;;;;;;;0.50;0.50;;;8.60;97.60;;;;;;7718081;28;20072;-77
2020/12/05 05:29:47;;;;;;;0.40;0.40;;;8.60;97.50;;;;;;7731773;28;20091;-77
2020/12/05 05:33:38;;;;;;;0.47;0.47;;;8.60;97.60;;;;;;7722241;28;20465;-76
2020/12/05 05:37:20;;;;;;;0.40;0.40;;;8.70;97.50;;;;;;7699610;28;20363;-75
2020/12/05 05:41:14;;;;;;;0.50;0.50;;;8.70;97.50;;;;;;7730902;28;20132;-76
2020/12/05 05:45:17;;;;;;;0.50;0.50;;;8.70;97.40;;;;;;7717468;28;20441;-78
2020/12/05 05:49:00;;;;;;;0.50;0.50;;;8.60;97.30;;;;;;7731722;28;20426;-76
2020/12/05 05:52:41;;;;;;;0.50;0.50;;;8.60;97.50;;;;;;7731269;28;20136;-76
2020/12/05 05:56:23;;;;;;;0.50;0.50;;;8.60;97.60;;;;;;7702921;28;20045;-75
2020/12/05 06:00:05;;;;;;;0.50;0.50;;;8.60;97.70;;;;;;7731144;28;20056;-75
2020/12/05 06:03:52;;;;;;;0.50;0.50;;;8.60;97.80;;;;;;7742850;28;20066;-76
2020/12/05 06:07:36;;;;;;;0.50;0.50;;;8.50;97.80;;;;;;7719978;28;20071;-76
2020/12/05 06:11:18;;;;;;;0.50;0.50;;;8.40;97.80;;;;;;7716934;28;20094;-78
2020/12/05 06:14:59;;;;;;;0.50;0.50;;;8.40;97.80;;;;;;7726870;28;20436;-77
2020/12/05 06:18:41;;;;;;;0.67;0.50;;;8.40;97.70;;;;;;7723013;28;20061;-76
2020/12/05 06:22:41;;;;;;;0.50;0.50;;;8.20;97.60;;;;;;7707320;28;20094;-76
2020/12/05 06:26:30;;;;;;;0.97;0.70;;;8.20;97.30;;;;;;7729323;28;20108;-76
2020/12/05 06:30:13;;;;;;;0.63;0.60;;;8.00;97.30;;;;;;7720156;28;20051;-79
2020/12/05 06:33:54;;;;;;;0.60;0.60;;;7.90;97.40;;;;;;7729708;28;20453;-76
2020/12/05 06:37:35;;;;;;;0.50;0.50;;;7.80;97.40;;;;;;7729832;28;20086;-77
2020/12/05 06:41:32;;;;;;;0.50;0.50;;;7.70;97.40;;;;;;7716846;28;20056;-76
2020/12/05 06:45:25;;;;;;;0.50;0.50;;;7.60;97.30;;;;;;7719133;28;20479;-76
2020/12/05 06:49:07;;;;;;;0.50;0.50;;;7.50;97.40;;;;;;7729862;28;20056;-76
2020/12/05 06:52:49;;;;;;;1.20;0.83;;;7.40;97.50;;;;;;7729456;28;20441;-76
2020/12/05 06:56:30;;;;;;;0.90;0.70;;;7.40;97.70;;;;;;7722723;28;20094;-76
2020/12/05 07:00:14;;;;;;;0.70;0.70;;;7.30;97.70;;;;;;7728928;28;20475;-76
2020/12/05 07:04:19;;;;;;;0.70;0.60;;;7.30;97.80;;;;;;7729397;28;20087;-78
2020/12/05 07:08:19;;;;;;;0.60;0.60;;;7.20;97.80;;;;;;7727784;28;20052;-76
2020/12/05 07:12:19;;;;;;;1.43;0.83;;;7.10;98.10;;;;;;7728977;28;20087;-75
2020/12/05 07:16:12;;;;;;;1.23;0.77;;;7.20;98.10;;;;;;7729013;28;20056;-76
2020/12/05 07:19:54;;;;;;;1.10;0.70;;;7.10;98.60;;;;;;7721748;28;20433;-76
2020/12/05 07:23:36;;;;;;;1.33;0.67;;;7.40;98.90;;;;;;7730678;28;20055;-77
2020/12/05 07:27:18;;;;;;;0.87;0.60;;;7.00;98.90;;;;;;7745926;28;20048;-77
2020/12/05 07:31:00;;;;;;;0.73;0.53;;;7.00;99.20;;;;;;7731097;28;20445;-76
2020/12/05 07:34:41;;;;;;;0.50;0.50;;;7.00;99.30;;;;;;7730125;28;20052;-77
2020/12/05 07:38:23;;;;;;;0.63;0.60;;;7.00;99.50;;;;;;7726460;28;20551;-78
2020/12/05 07:42:05;;;;;;;1.13;0.50;;;7.00;99.60;;;;;;7723399;28;20146;-76
2020/12/05 07:45:49;;;;;;;0.77;0.57;;;6.90;99.70;;;;;;7730497;28;20072;-76
2020/12/05 07:49:30;;;;;;;1.47;0.77;;;7.10;99.80;;;;;;7728086;28;20094;-78
2020/12/05 07:53:23;;;;;;;1.53;0.90;;;7.00;99.80;;;;;;7728908;28;20423;-78
2020/12/05 07:57:08;;;;;;;3.97;1.10;;;7.00;99.60;;;;;;7728406;28;20604;-77
2020/12/05 08:00:54;;;;;;;2.40;1.20;;;7.00;99.70;;;;;;7729258;28;20507;-78
2020/12/05 08:05:08;;;;;;;1.40;0.85;;;7.00;99.70;;;;;;7732211;28;20048;-78
2020/12/05 08:09:02;;;;;;;1.47;0.97;;;7.00;99.70;;;;;;7752176;27;20107;-76
2020/12/05 08:12:43;;;;;;;1.73;0.93;;;7.00;99.70;;;;;;7734016;28;20084;-78
2020/12/05 08:16:26;;;;;;;0.97;0.80;;;7.00;99.70;;;;;;7733957;28;20063;-77
2020/12/05 08:20:08;;;;;;;0.70;0.70;;;7.00;99.70;;;;;;7724026;28;20086;-77
2020/12/05 08:23:49;;;;;;;0.60;0.60;;;7.00;99.60;;;;;;7731870;28;20530;-77
2020/12/05 08:27:32;;;;;;;0.87;0.70;;;7.10;99.60;;;;;;7733264;28;20056;-85
2020/12/05 08:31:14;;;;;;;0.60;0.60;;;7.10;99.60;;;;;;7745006;28;20455;-77
2020/12/05 08:35:10;;;;;;;0.80;0.60;;;7.10;99.50;;;;;;7732522;28;20483;-77
2020/12/05 08:38:55;;;;;;;0.70;0.63;;;7.20;99.50;;;;;;7732795;28;20108;-76
2020/12/05 08:42:48;;;;;;;1.20;0.80;;;7.20;99.60;;;;;;7734318;28;20048;-76
2020/12/05 08:46:29;;;;;;;1.30;0.70;;;7.20;99.60;;;;;;7733946;28;20105;-77
2020/12/05 08:50:35;;;;;;;0.73;0.70;;;7.20;99.70;;;;;;7729546;28;20454;-80
2020/12/05 08:54:17;;;;;;;2.30;0.83;;;7.30;99.50;;;;;;7734291;28;20318;-80
2020/12/05 08:58:07;;;;;;;0.73;0.70;;;7.30;99.80;;;;;;7732616;28;20135;-76
2020/12/05 09:01:52;;;;;;;2.90;1.13;;;7.40;99.90;;;;;;7724011;28;20444;-81
2020/12/05 09:05:44;;;;;;;2.20;1.23;;;7.30;99.90;;;;;;7713924;28;20095;-80
2020/12/05 09:09:31;;;;;;;3.73;1.53;;;7.40;99.80;;;;;;7729340;28;20055;-82
2020/12/05 09:13:13;;;;;;;6.50;2.47;;;7.50;99.90;;;;;;7729982;28;20168;-79
2020/12/05 09:16:54;;;;;;;2.90;1.20;;;7.50;99.90;;;;;;7733560;28;20114;-77
2020/12/05 09:20:41;;;;;;;1.97;1.03;;;7.50;99.90;;;;;;7733301;28;20079;-82
2020/12/05 09:24:23;;;;;;;3.73;1.40;;;7.60;99.90;;;;;;7728661;28;20047;-78
2020/12/05 09:28:13;;;;;;;1.37;0.70;;;7.70;99.90;;;;;;7732329;28;20378;-79
2020/12/05 09:31:58;;;;;;;1.63;1.03;;;7.80;99.90;;;;;;7727507;28;20082;-79
2020/12/05 09:35:39;;;;;;;0.83;0.70;;;7.90;99.90;;;;;;7732767;28;20090;-81
2020/12/05 09:39:21;;;;;;;1.57;0.93;;;8.00;99.90;;;;;;7729824;28;20067;-79
2020/12/05 09:43:03;;;;;;;2.70;1.40;;;8.00;99.90;;;;;;7732639;28;20063;-82
2020/12/05 09:46:44;;;;;;;2.07;1.10;;;8.10;99.90;;;;;;7737002;28;20111;-79
2020/12/05 09:50:26;;;;;;;3.53;1.50;;;8.10;99.90;;;;;;7727709;28;20135;-81
2020/12/05 09:54:08;;;;;;;2.30;1.40;;;8.10;99.90;;;;;;7713092;28;20094;-81
2020/12/05 09:57:49;;;;;;;2.20;1.00;;;8.20;99.90;;;;;;7731412;27;20080;-83
2020/12/05 10:01:31;;;;;;;2.60;1.10;;;8.10;99.90;;;;;;7713471;28;20091;-81
2020/12/05 10:05:13;;;;;;;1.70;0.93;;;8.10;99.90;;;;;;7725450;28;20087;-79
2020/12/05 10:08:54;;;;;;;1.63;0.97;;;8.10;99.90;;;;;;7730211;28;20439;-76
2020/12/05 10:12:36;;;;;;;2.40;1.20;;;8.20;99.90;;;;;;7731773;28;20416;-77
2020/12/05 10:16:18;;;;;;;2.23;1.00;;;8.20;99.90;;;;;;7724031;28;20142;-77
2020/12/05 10:20:00;;;;;;;2.70;1.20;;;8.20;99.90;;;;;;7732280;28;20055;-79
2020/12/05 10:23:41;;;;;;;3.63;1.20;;;8.30;99.90;;;;;;7728256;28;20441;-77
2020/12/05 10:27:23;;;;;;;2.60;1.10;;;8.40;99.90;;;;;;7730880;28;20052;-79
2020/12/05 10:31:05;;;;;;;2.27;1.10;;;8.50;99.90;;;;;;7730743;28;20048;-76
2020/12/05 10:34:46;;;;;;;1.50;0.90;;;8.60;99.90;;;;;;7725702;28;20104;-80
2020/12/05 10:38:28;;;;;;;3.03;1.30;;;8.60;99.90;;;;;;7731819;28;20052;-83
2020/12/05 10:42:09;;;;;;;1.93;0.90;;;8.70;99.90;;;;;;7731121;28;20060;-78
2020/12/05 10:45:51;;;;;;;1.90;0.90;;;8.70;99.90;;;;;;7729395;28;20067;-80
2020/12/05 10:49:33;;;;;;;0.97;0.73;;;8.90;99.90;;;;;;7730590;28;20151;-78
2020/12/05 10:53:14;;;;;;;1.20;0.70;;;8.90;99.90;;;;;;7729602;28;20063;-82
2020/12/05 10:56:56;;;;;;;1.17;0.80;;;9.00;99.90;;;;;;7730797;28;20052;-78
2020/12/05 11:00:37;;;;;;;2.87;1.10;;;9.10;99.90;;;;;;7731808;28;20063;-78
2020/12/05 11:04:18;;;;;;;1.97;1.13;;;9.20;99.90;;;;;;7733820;28;20094;-80
2020/12/05 11:08:00;;;;;;;2.80;1.23;;;9.30;99.90;;;;;;7696608;28;20053;-84
2020/12/05 11:11:44;;;;;;;2.57;1.20;;;9.40;99.90;;;;;;7722867;28;20131;-77
2020/12/05 11:15:25;;;;;;;2.43;1.10;;;9.50;99.90;;;;;;7730970;28;20146;-77
2020/12/05 11:19:07;;;;;;;5.07;1.20;;;9.60;99.90;;;;;;7726785;28;20091;-77
2020/12/05 11:22:49;;;;;;;2.27;1.00;;;9.70;99.90;;;;;;7717380;28;20401;-77
2020/12/05 11:26:31;;;;;;;1.10;0.80;;;9.70;99.90;;;;;;7720065;28;20056;-78
2020/12/05 11:30:12;;;;;;;2.73;1.10;;;9.80;99.90;;;;;;7724850;28;20075;-78
2020/12/05 11:33:53;;;;;;;1.87;1.10;;;9.80;99.90;;;;;;7726491;28;20099;-77
2020/12/05 11:37:35;;;;;;;3.80;1.20;;;9.90;99.90;;;;;;7729644;28;20563;-78
2020/12/05 11:41:16;;;;;;;1.50;0.87;;;9.90;99.90;;;;;;7731759;28;20052;-76
2020/12/05 11:45:02;;;;;;;4.83;2.27;;;10.00;99.80;;;;;;7732142;28;20047;-76
2020/12/05 11:48:44;;;;;;;3.67;1.42;;;10.00;99.60;;;;;;7716995;28;20086;-77
2020/12/05 11:52:25;;;;;;;3.83;1.63;;;10.00;99.70;;;;;;7739782;28;20071;-75
2020/12/05 11:56:07;;;;;;;4.23;1.10;;;10.00;99.10;;;;;;7746538;28;20146;-75
2020/12/05 11:59:48;;;;;;;4.40;1.30;;;10.00;99.30;;;;;;7747516;28;20429;-75
2020/12/05 12:03:29;;;;;;;1.87;1.10;;;10.00;99.30;;;;;;7728739;28;20087;-74
2020/12/05 12:07:11;;;;;;;3.83;1.37;;;9.90;99.20;;;;;;7735068;28;20140;-76
2020/12/05 12:10:52;;;;;;;2.33;1.20;;;9.90;99.20;;;;;;7739433;28;20098;-73
2020/12/05 12:14:35;;;;;;;3.60;1.13;;;9.90;99.20;;;;;;7732907;28;20056;-76
2020/12/05 12:18:16;;;;;;;2.20;1.10;;;9.90;99.10;;;;;;7744623;28;20098;-76
2020/12/05 12:21:57;;;;;;;3.77;1.40;;;9.90;98.90;;;;;;7736208;28;20104;-76
2020/12/05 12:25:39;;;;;;;2.83;1.20;;;9.90;98.90;;;;;;7745310;28;20051;-77
2020/12/05 12:29:21;;;;;;;1.20;0.90;;;9.90;98.90;;;;;;7749051;28;20134;-75
2020/12/05 12:33:03;;;;;;;1.23;0.80;;;9.90;98.60;;;;;;7747737;28;20052;-77
2020/12/05 12:36:44;;;;;;;1.90;0.80;;;9.90;98.50;;;;;;7741907;28;20134;-75
2020/12/05 12:40:25;;;;;;;1.40;0.70;;;9.90;98.00;;;;;;7728553;28;20131;-76
2020/12/05 12:44:07;;;;;;;1.83;0.80;;;9.80;98.00;;;;;;7748003;28;20139;-77
2020/12/05 12:48:36;;;;;;;0.90;0.70;;;9.80;98.00;;;;;;7750382;28;20135;-76
2020/12/05 12:51:49;;;;;;;1.40;0.70;;;9.80;97.60;;;;;;7740847;28;20091;-76
2020/12/05 12:55:31;;;;;;;2.10;1.03;;;9.70;97.70;;;;;;7732472;28;20067;-75
2020/12/05 12:59:13;;;;;;;1.20;0.70;;;9.70;97.80;;;;;;7736677;28;20087;-76
2020/12/05 13:02:54;;;;;;;1.67;1.47;;;9.70;97.80;;;;;;7746871;28;20143;-75
2020/12/05 13:06:35;;;;;;;2.93;1.50;;;9.60;97.70;;;;;;7739659;28;20143;-74
2020/12/05 13:10:17;;;;;;;5.27;1.60;;;9.60;97.70;;;;;;7748213;28;20149;-75
2020/12/05 13:13:58;;;;;;;3.63;1.40;;;9.70;97.60;;;;;;7748965;28;20066;-75
2020/12/05 13:17:40;;;;;;;3.67;1.80;;;9.60;97.80;;;;;;7749231;28;20411;-75
2020/12/05 13:21:22;;;;;;;6.60;1.70;;;9.70;97.80;;;;;;7726927;28;20146;-74
2020/12/05 13:25:04;;;;;;;5.03;1.93;;;9.70;97.60;;;;;;7757070;28;20118;-74
2020/12/05 13:28:45;;;;;;;2.93;1.47;;;9.60;97.80;;;;;;7749391;28;20134;-75
2020/12/05 13:32:27;;;;;;;3.23;1.53;;;9.60;97.80;;;;;;7753778;28;20126;-75
2020/12/05 13:36:10;;;;;;;3.83;1.60;;;9.60;98.20;;;;;;7749883;28;20052;-73
2020/12/05 13:39:51;;;;;;;7.07;2.30;;;9.70;98.20;;;;;;7731897;28;20564;-74
2020/12/05 13:43:33;;;;;;;5.43;2.13;;;9.70;97.30;;;;;;7743871;28;20099;-75
2020/12/05 13:47:15;;;;;;;4.07;2.00;;;9.70;97.40;;;;;;7750006;28;20402;-75
2020/12/05 13:50:56;;;;;;;5.77;2.00;;;9.60;97.50;;;;;;7734907;28;20051;-79
2020/12/05 13:54:38;;;;;;;4.67;2.10;;;9.60;97.70;;;;;;7746143;28;20067;-73
2020/12/05 13:58:20;;;;;;;7.47;1.60;;;9.60;97.70;;;;;;7747929;28;20056;-74
2020/12/05 14:02:02;;;;;;;5.70;1.70;;;9.60;97.70;;;;;;7760325;28;20066;-74
2020/12/05 14:05:44;;;;;;;5.17;1.60;;;9.70;97.40;;;;;;7734567;28;20137;-77
2020/12/05 14:09:25;;;;;;;4.17;2.10;;;9.70;97.50;;;;;;7734021;28;20143;-76
2020/12/05 14:13:07;;;;;;;5.13;1.83;;;9.80;97.40;;;;;;7717766;28;20091;-78
2020/12/05 14:16:50;;;;;;;6.80;3.17;;;9.80;97.60;;;;;;7742361;28;20177;-77
2020/12/05 14:20:31;;;;;;;5.03;1.90;;;9.90;96.70;;;;;;7746433;28;20104;-76
2020/12/05 14:24:13;;;;;;;4.53;2.27;;;9.80;96.70;;;;;;7735553;28;20139;-75
2020/12/05 14:27:55;;;;;;;6.93;1.90;;;9.80;96.70;;;;;;7744887;28;20056;-74
2020/12/05 14:31:36;;;;;;;2.20;1.50;;;9.80;96.90;;;;;;7734992;28;20056;-76
2020/12/05 14:35:18;;;;;;;2.90;1.40;;;9.90;96.90;;;;;;7744252;28;20095;-76
2020/12/05 14:39:01;;;;;;;5.33;1.97;;;9.90;96.80;;;;;;7736833;28;20060;-77
2020/12/05 14:42:43;;;;;;;3.90;1.93;;;10.00;96.50;;;;;;7725225;28;20117;-76
2020/12/05 14:46:24;;;;;;;1.93;1.03;;;10.00;96.10;;;;;;7700710;28;20136;-77
2020/12/05 14:50:07;;;;;;;2.53;1.20;;;10.00;95.80;;;;;;7700485;28;20084;-75
2020/12/05 14:53:48;;;;;;;2.30;1.10;;;9.80;95.70;;;;;;7700100;28;20056;-78
2020/12/05 14:57:30;;;;;;;3.17;1.53;;;9.70;95.60;;;;;;7700412;28;20060;-74
2020/12/05 15:01:12;;;;;;;9.33;4.20;;;9.60;95.60;;;;;;7724996;28;20060;-75
2020/12/05 15:04:54;;;;;;;9.50;4.30;;;9.50;95.60;;;;;;7742443;28;20098;-75
2020/12/05 15:08:35;;;;;;;7.97;3.57;;;9.40;95.70;;;;;;7730945;28;20128;-73
2020/12/05 15:12:17;;;;;;;4.20;2.00;;;9.30;95.80;;;;;;7739987;28;20051;-74
2020/12/05 15:15:59;;;;;;;3.77;1.90;;;9.20;95.90;;;;;;7736220;28;20086;-74
2020/12/05 15:19:40;;;;;;;2.40;1.23;;;9.10;96.00;;;;;;7751843;28;20095;-74
2020/12/05 15:23:22;;;;;;;4.13;1.80;;;9.10;96.20;;;;;;7750552;28;20394;-74
2020/12/05 15:27:04;;;;;;;3.80;1.90;;;9.10;96.30;;;;;;7740661;28;20114;-74
2020/12/05 15:30:48;;;;;;;5.63;2.10;;;9.10;96.40;;;;;;7750858;28;20138;-75
2020/12/05 15:34:30;;;;;;;6.97;2.40;;;9.10;96.20;;;;;;7751441;28;20408;-73
2020/12/05 15:38:12;;;;;;;4.60;2.30;;;9.20;96.20;;;;;;7747976;28;20056;-73
2020/12/05 15:41:53;;;;;;;3.27;1.67;;;9.20;96.10;;;;;;7752135;28;20130;-75
2020/12/05 15:45:35;;;;;;;3.10;1.57;;;9.20;96.20;;;;;;7741174;28;20060;-74
2020/12/05 15:49:16;;;;;;;4.33;1.67;;;9.20;96.30;;;;;;7739336;28;20100;-74
2020/12/05 15:52:58;;;;;;;4.27;2.20;;;9.30;96.20;;;;;;7732802;28;20460;-73
2020/12/05 15:56:40;;;;;;;6.50;3.10;;;9.20;96.00;;;;;;7735801;28;20076;-79
2020/12/05 16:00:21;;;;;;;6.87;2.47;;;9.30;95.80;;;;;;7739552;28;20480;-80
2020/12/05 16:04:03;;;;;;;7.57;4.03;;;9.30;95.40;;;;;;7741657;28;20519;-74
2020/12/05 16:07:44;;;;;;;5.07;2.30;;;9.30;95.00;;;;;;7739559;28;20459;-78
2020/12/05 16:11:29;;;;;;;3.90;2.10;;;9.30;95.10;;;;;;7751145;28;20052;-82
2020/12/05 16:15:11;;;;;;;5.23;2.20;;;9.30;95.30;;;;;;7726525;28;20091;-75
2020/12/05 16:18:52;;;;;;;3.87;2.30;;;9.30;95.30;;;;;;7741323;28;20417;-74
2020/12/05 16:22:35;;;;;;;6.77;3.13;;;9.30;95.10;;;;;;7739354;28;20564;-74
2020/12/05 16:26:17;;;;;;;4.73;2.57;;;9.30;94.90;;;;;;7731444;28;20095;-75
2020/12/05 16:29:59;;;;;;;7.30;2.40;;;9.30;94.80;;;;;;7735232;28;20120;-75
2020/12/05 16:33:41;;;;;;;6.00;2.87;;;9.30;94.70;;;;;;7739653;28;20086;-74
2020/12/05 16:37:23;;;;;;;9.13;5.40;;;9.30;94.50;;;;;;7742791;28;20095;-75
2020/12/05 16:41:10;;;;;;;7.00;3.13;;;9.20;94.50;;;;;;7734238;28;20142;-80
2020/12/05 16:44:51;;;;;;;8.57;2.85;;;9.20;94.20;;;;;;7748187;28;20491;-75
2020/12/05 16:48:33;;;;;;;4.97;2.90;;;9.10;94.40;;;;;;7733605;28;20056;-74
2020/12/05 16:52:14;;;;;;;8.17;3.20;;;9.10;94.70;;;;;;7736742;28;20384;-78
2020/12/05 16:55:59;;;;;;;6.97;3.60;;;9.00;94.60;;;;;;7750818;28;20067;-75
2020/12/05 16:59:41;;;;;;;8.50;3.57;;;9.00;94.60;;;;;;7729132;28;20063;-83
2020/12/05 17:03:22;;;;;;;8.97;3.17;;;9.00;94.70;;;;;;7733244;28;20102;-76
2020/12/05 17:07:04;;;;;;;9.83;4.13;;;8.90;94.80;;;;;;7731125;28;20092;-75
2020/12/05 17:10:50;;;;;;;6.30;3.23;;;8.90;94.90;;;;;;7733051;28;20091;-77
2020/12/05 17:14:31;;;;;;;10.02;4.70;;;8.80;95.10;;;;;;7736452;28;20060;-78
2020/12/05 17:18:13;;;;;;;11.40;5.57;;;8.70;95.40;;;;;;7739775;28;20084;-77
2020/12/05 17:21:55;;;;;;;9.67;3.90;;;8.60;95.50;;;;;;7738461;28;20056;-79
2020/12/05 17:25:37;;;;;;;7.97;3.30;;;8.50;95.70;;;;;;7734955;28;20638;-76
2020/12/05 17:29:18;;;;;;;12.13;4.73;;;8.30;96.00;;;;;;7726755;28;20166;-84
2020/12/05 17:33:00;;;;;;;9.37;4.13;;;8.20;96.40;;;;;;7705792;28;20508;-77
2020/12/05 17:36:41;;;;;;;17.90;8.57;;;8.10;96.50;;;;;;7718181;28;20131;-79
2020/12/05 17:40:23;;;;;;;11.63;4.50;;;8.00;97.20;;;;;;7740934;28;20092;-74
2020/12/05 17:44:04;;;;;;;11.17;4.13;;;7.90;97.40;;;;;;7750106;28;20060;-83
2020/12/05 17:47:46;;;;;;;7.87;4.20;;;7.80;97.50;;;;;;7748520;28;20059;-82
2020/12/05 17:51:30;;;;;;;12.33;4.50;;;7.70;97.80;;;;;;7733771;28;20056;-76
2020/12/05 17:55:11;;;;;;;10.83;5.23;;;7.60;98.20;;;;;;7742067;28;20064;-77
2020/12/05 17:58:53;;;;;;;13.50;6.27;;;7.50;98.30;;;;;;7750209;28;20415;-77
2020/12/05 18:02:35;;;;;;;9.27;5.73;;;7.50;98.80;;;;;;7748472;28;20063;-75
2020/12/05 18:06:17;;;;;;;12.67;4.87;;;7.50;99.10;;;;;;7745839;28;20122;-76
2020/12/05 18:09:58;;;;;;;12.40;5.47;;;7.40;99.30;;;;;;7744421;28;20067;-75
2020/12/05 18:13:40;;;;;;;15.40;5.27;;;7.40;99.40;;;;;;7747695;28;20098;-84
2020/12/05 18:17:21;;;;;;;12.03;6.50;;;7.30;99.40;;;;;;7716127;28;20140;-78
2020/12/05 18:21:03;;;;;;;9.63;4.70;;;7.30;99.90;;;;;;7730341;28;20393;-76
2020/12/05 18:24:44;;;;;;;40.00;21.63;;;7.20;99.90;;;;;;7759688;28;20067;-75
2020/12/05 18:28:26;;;;;;;32.33;21.63;;;7.20;99.90;;;;;;7735505;28;20091;-77
2020/12/05 18:32:07;;;;;;;13.97;8.90;;;7.20;99.90;;;;;;7743248;28;20135;-77
2020/12/05 18:35:49;;;;;;;17.37;11.37;;;7.00;99.90;;;;;;7750043;28;20095;-77
2020/12/05 18:39:31;;;;;;;21.10;10.10;;;7.00;99.90;;;;;;7727505;28;20368;-77
2020/12/05 18:43:13;;;;;;;32.87;17.07;;;7.00;99.90;;;;;;7729623;28;20052;-78
2020/12/05 18:46:55;;;;;;;12.03;7.60;;;7.00;99.90;;;;;;7724776;28;20147;-79
2020/12/05 18:50:36;;;;;;;18.80;10.10;;;6.90;99.90;;;;;;7727327;28;20109;-75
2020/12/05 18:54:18;;;;;;;14.60;6.37;;;6.80;99.90;;;;;;7706320;28;20143;-81
2020/12/05 18:57:59;;;;;;;15.47;8.43;;;6.80;99.90;;;;;;7729868;28;20060;-76
2020/12/05 19:01:44;;;;;;;12.87;6.33;;;6.80;99.90;;;;;;7715526;28;20058;-75
2020/12/05 19:05:26;;;;;;;11.43;7.43;;;6.80;99.90;;;;;;7729316;28;20202;-82
2020/12/05 19:09:07;;;;;;;20.00;8.20;;;6.70;99.90;;;;;;7727966;28;20067;-75
2020/12/05 19:12:49;;;;;;;26.33;12.93;;;6.70;99.90;;;;;;7725177;28;20052;-81
2020/12/05 19:16:31;;;;;;;16.07;7.87;;;6.70;99.90;;;;;;7726851;28;20099;-78
2020/12/05 19:20:12;;;;;;;21.27;8.40;;;6.60;99.90;;;;;;7726519;28;20144;-75
2020/12/05 19:23:57;;;;;;;21.20;9.73;;;6.50;99.90;;;;;;7725959;28;20453;-75
2020/12/05 19:27:38;;;;;;;13.20;8.27;;;6.50;99.90;;;;;;7716214;28;20136;-76
2020/12/05 19:31:20;;;;;;;13.97;9.40;;;6.50;99.90;;;;;;7728951;28;20059;-81
2020/12/05 19:35:01;;;;;;;14.93;8.30;;;6.50;99.90;;;;;;7726591;28;20075;-75